createdAt,value
2023-04-13T00:04:23.486Z,6.40
2023-04-13T00:09:26.070Z,6.50
2023-04-13T00:14:34.104Z,6.60
2023-04-13T00:19:38.114Z,6.60
2023-04-13T00:24:40.360Z,6.50
2023-04-13T00:29:42.584Z,6.40
2023-04-13T00:34:47.123Z,6.40
2023-04-13T00:39:49.392Z,6.40
2023-04-13T00:44:52.168Z,6.30
2023-04-13T00:49:57.076Z,6.40
2023-04-13T00:54:59.434Z,6.30
2023-04-13T01:00:08.082Z,6.30
2023-04-13T01:05:15.680Z,6.40
2023-04-13T01:10:23.832Z,6.40
2023-04-13T01:15:27.806Z,6.40
2023-04-13T01:20:33.936Z,6.40
2023-04-13T01:25:41.867Z,6.50
2023-04-13T01:30:46.633Z,6.50
2023-04-13T01:35:48.958Z,6.30
2023-04-13T01:40:52.023Z,6.20
2023-04-13T01:46:04.260Z,6.10
2023-04-13T01:51:11.277Z,6.30
2023-04-13T01:56:15.576Z,6.30
2023-04-13T02:01:19.040Z,6.30
2023-04-13T02:06:21.287Z,6.10
2023-04-13T02:11:23.419Z,6.10
2023-04-13T02:16:27.004Z,5.80
2023-04-13T02:21:29.358Z,5.90
2023-04-13T02:26:31.250Z,5.80
2023-04-13T02:31:35.633Z,5.80
2023-04-13T02:36:38.431Z,5.80
2023-04-13T02:41:43.405Z,5.80
2023-04-13T02:46:47.278Z,5.90
2023-04-13T02:51:49.249Z,5.80
2023-04-13T02:56:51.257Z,5.50
2023-04-13T03:01:59.013Z,5.60
2023-04-13T03:07:05.295Z,5.60
2023-04-13T03:12:09.352Z,5.60
2023-04-13T03:17:13.088Z,5.70
2023-04-13T03:22:16.135Z,5.60
2023-04-13T03:27:18.687Z,5.50
2023-04-13T03:32:22.586Z,5.40
2023-04-13T03:37:29.526Z,5.40
2023-04-13T03:42:32.239Z,5.30
2023-04-13T03:47:35.877Z,5.20
2023-04-13T03:52:38.140Z,5.20
2023-04-13T03:57:40.085Z,5.20
2023-04-13T04:02:44.281Z,5.10
2023-04-13T04:07:46.738Z,5.20
2023-04-13T04:12:48.838Z,5.10
2023-04-13T04:17:52.579Z,5.10
2023-04-13T04:22:54.961Z,5.00
2023-04-13T04:27:57.938Z,5.00
2023-04-13T04:33:02.700Z,5.00
2023-04-13T04:38:05.444Z,4.90
2023-04-13T04:43:07.919Z,5.00
2023-04-13T04:48:11.556Z,5.00
2023-04-13T04:53:13.960Z,5.00
2023-04-13T04:58:17.183Z,5.00
2023-04-13T05:03:21.297Z,4.90
2023-04-13T05:08:23.714Z,5.10
2023-04-13T05:13:25.804Z,5.10
2023-04-13T05:18:32.929Z,5.10
2023-04-13T05:23:34.956Z,5.20
2023-04-13T05:28:37.154Z,5.20
2023-04-13T05:33:40.322Z,5.40
2023-04-13T05:38:43.077Z,5.40
2023-04-13T05:43:46.382Z,5.50
2023-04-13T05:48:49.931Z,5.40
2023-04-13T05:53:52.487Z,5.50
2023-04-13T05:58:54.836Z,5.50
2023-04-13T06:03:58.791Z,5.70
2023-04-13T06:09:01.629Z,5.80
2023-04-13T06:14:03.997Z,6.00
2023-04-13T06:19:07.870Z,6.10
2023-04-13T06:24:10.196Z,6.30
2023-04-13T06:29:12.649Z,6.30
2023-04-13T06:34:16.362Z,6.30
2023-04-13T06:39:18.960Z,6.50
2023-04-13T06:44:21.224Z,6.30
2023-04-13T06:49:25.182Z,6.50
2023-04-13T06:54:27.583Z,6.30
2023-04-13T06:59:29.804Z,6.70
2023-04-13T07:04:34.211Z,6.70
2023-04-13T07:09:36.872Z,6.80
2023-04-13T07:14:41.098Z,7.10
2023-04-13T07:19:48.164Z,7.30
2023-04-13T07:24:50.294Z,7.50
2023-04-13T07:29:53.062Z,7.70
2023-04-13T07:35:01.488Z,7.10
2023-04-13T07:40:04.805Z,7.20
2023-04-13T07:45:08.331Z,7.40
2023-04-13T07:50:13.534Z,7.50
2023-04-13T07:55:16.220Z,7.50
2023-04-13T08:00:20.770Z,7.40
2023-04-13T08:05:24.897Z,7.40
2023-04-13T08:10:27.454Z,7.50
2023-04-13T08:15:29.559Z,7.70
2023-04-13T08:20:34.104Z,7.70
2023-04-13T08:25:40.943Z,7.80
2023-04-13T08:30:43.300Z,8.20
2023-04-13T08:35:46.587Z,8.10
2023-04-13T08:40:50.261Z,8.00
2023-04-13T08:45:52.928Z,8.10
2023-04-13T08:50:59.700Z,8.70
2023-04-13T08:56:03.223Z,9.00
2023-04-13T09:01:06.807Z,9.70
2023-04-13T09:06:13.315Z,10.30
2023-04-13T09:11:15.564Z,11.00
2023-04-13T09:16:18.096Z,11.80
2023-04-13T09:21:22.642Z,12.20
2023-04-13T09:26:24.653Z,12.00
2023-04-13T09:31:26.999Z,11.50
2023-04-13T09:36:32.743Z,12.80
2023-04-13T09:41:36.669Z,12.40
2023-04-13T09:46:39.150Z,13.00
2023-04-13T09:51:43.293Z,12.40
2023-04-13T09:56:53.037Z,11.90
2023-04-13T10:01:55.908Z,12.90
2023-04-13T10:06:59.700Z,13.20
2023-04-13T10:12:02.235Z,12.80
2023-04-13T10:17:23.338Z,11.80
2023-04-13T10:22:27.254Z,11.90
2023-04-13T10:27:29.556Z,11.30
2023-04-13T10:32:32.307Z,10.80
2023-04-13T10:37:36.221Z,11.10
2023-04-13T10:47:49.283Z,11.10
2023-04-13T10:53:05.093Z,12.10
2023-04-13T10:58:18.458Z,12.60
2023-04-13T11:03:20.636Z,11.60
2023-04-13T11:08:24.515Z,10.70
2023-04-13T11:13:27.073Z,10.20
2023-04-13T11:18:29.311Z,9.30
2023-04-13T11:23:34.893Z,9.00
2023-04-13T11:28:41.953Z,9.30
2023-04-13T11:33:44.769Z,9.40
2023-04-13T11:38:49.840Z,9.50
2023-04-13T11:43:52.458Z,10.00
2023-04-13T11:48:55.061Z,10.50
2023-04-13T11:53:59.855Z,10.70
2023-04-13T11:59:02.348Z,10.80
2023-04-13T12:04:14.600Z,10.90
2023-04-13T12:09:22.158Z,11.00
2023-04-13T12:19:32.998Z,11.50
2023-04-13T12:24:39.506Z,11.70
2023-04-13T12:29:42.504Z,11.70
2023-04-13T12:34:45.635Z,10.30
2023-04-13T12:39:49.404Z,9.60
2023-04-13T12:44:51.831Z,8.70
2023-04-13T12:49:53.906Z,8.40
2023-04-13T12:54:57.765Z,8.50
2023-04-13T13:00:00.216Z,8.50
2023-04-13T13:05:01.988Z,8.50
2023-04-13T13:10:14.990Z,8.30
2023-04-13T13:15:28.514Z,8.30
2023-04-13T13:20:30.410Z,8.20
2023-04-13T13:25:35.534Z,8.10
2023-04-13T13:30:38.944Z,7.60
2023-04-13T13:35:41.082Z,7.40
2023-04-13T13:40:44.290Z,7.60
2023-04-13T13:45:46.281Z,7.90
2023-04-13T13:50:48.292Z,8.10
2023-04-13T13:55:52.091Z,8.40
2023-04-13T14:00:56.019Z,8.30
2023-04-13T14:05:57.982Z,8.60
2023-04-13T14:11:01.726Z,8.70
2023-04-13T14:16:03.893Z,8.50
2023-04-13T14:21:06.643Z,8.50
2023-04-13T14:26:10.466Z,8.60
2023-04-13T14:31:14.764Z,8.70
2023-04-13T14:36:17.205Z,8.50
2023-04-13T14:41:21.409Z,8.80
2023-04-13T14:46:23.704Z,8.60
2023-04-13T14:51:27.467Z,8.70
2023-04-13T14:56:31.134Z,8.70
2023-04-13T15:01:34.144Z,8.80
2023-04-13T15:06:36.433Z,8.70
2023-04-13T15:11:40.408Z,9.10
2023-04-13T15:16:42.805Z,9.50
2023-04-13T15:21:44.943Z,9.70
2023-04-13T15:26:50.170Z,9.30
2023-04-13T15:31:52.788Z,9.50
2023-04-13T15:36:55.943Z,9.50
2023-04-13T15:42:00.645Z,9.50
2023-04-13T15:47:03.284Z,9.60
2023-04-13T15:52:05.654Z,9.40
2023-04-13T15:57:10.608Z,9.40
2023-04-13T16:02:13.450Z,9.60
2023-04-13T16:07:15.864Z,9.70
2023-04-13T16:12:20.365Z,9.10
2023-04-13T16:17:31.718Z,9.10
2023-04-13T16:22:35.701Z,9.10
2023-04-13T16:27:41.893Z,9.20
2023-04-13T16:32:44.898Z,9.30
2023-04-13T16:37:47.241Z,9.30
2023-04-13T16:42:52.028Z,9.10
2023-04-13T16:47:55.268Z,8.90
2023-04-13T16:52:57.646Z,8.60
2023-04-13T16:58:01.410Z,8.30
2023-04-13T17:03:03.670Z,8.10
2023-04-13T17:08:08.486Z,7.90
2023-04-13T17:13:12.402Z,7.90
2023-04-13T17:18:15.978Z,7.70
2023-04-13T17:23:18.281Z,7.50
2023-04-13T17:28:24.950Z,7.40
2023-04-13T17:33:29.568Z,7.20
2023-04-13T17:38:33.032Z,7.20
2023-04-13T17:43:37.412Z,7.20
2023-04-13T17:48:42.762Z,7.20
2023-04-13T17:53:46.059Z,7.30
2023-04-13T17:58:50.294Z,7.20
2023-04-13T18:03:53.598Z,7.10
2023-04-13T18:08:56.080Z,7.00
2023-04-13T18:14:00.598Z,6.90
2023-04-13T18:19:04.007Z,6.80
2023-04-13T18:24:07.837Z,6.60
2023-04-13T18:29:14.584Z,6.40
2023-04-13T18:34:17.198Z,6.30
2023-04-13T18:39:20.518Z,6.40
2023-04-13T18:44:25.203Z,6.30
2023-04-13T18:49:28.146Z,6.30
2023-04-13T18:54:33.152Z,6.40
2023-04-13T18:59:38.028Z,6.40
2023-04-13T19:04:40.439Z,6.40
2023-04-13T19:09:44.237Z,6.40
2023-04-13T19:14:51.159Z,6.40
2023-04-13T19:19:54.598Z,6.40
2023-04-13T19:24:58.672Z,6.30
2023-04-13T19:30:04.389Z,6.40
2023-04-13T19:35:10.730Z,6.50
2023-04-13T19:40:15.628Z,6.40
2023-04-13T19:45:20.652Z,6.50
2023-04-13T19:50:25.162Z,6.50
2023-04-13T19:55:28.899Z,6.40
2023-04-13T20:00:33.677Z,6.40
2023-04-13T20:05:39.758Z,6.40
2023-04-13T20:10:44.343Z,6.30
2023-04-13T20:15:51.475Z,6.30
2023-04-13T20:20:54.531Z,6.30
2023-04-13T20:25:57.526Z,6.30
2023-04-13T20:31:04.594Z,6.20
2023-04-13T20:36:07.198Z,6.10
2023-04-13T20:41:10.559Z,6.10
2023-04-13T20:46:14.465Z,6.10
2023-04-13T20:51:17.861Z,6.10
2023-04-13T20:56:23.984Z,6.00
2023-04-13T21:01:28.173Z,6.00
2023-04-13T21:06:30.455Z,6.00
2023-04-13T21:17:38.091Z,6.00
2023-04-13T21:22:40.442Z,6.00
2023-04-13T21:27:42.972Z,5.90
2023-04-13T21:32:46.699Z,5.90
2023-04-13T21:37:49.034Z,5.90
2023-04-13T21:42:51.308Z,5.90
2023-04-13T21:47:55.304Z,5.90
2023-04-13T21:52:57.701Z,5.80
2023-04-13T21:58:00.119Z,5.70
2023-04-13T22:03:09.388Z,5.70
2023-04-13T22:08:18.338Z,5.80
2023-04-13T22:13:20.945Z,5.70
2023-04-13T22:18:29.874Z,5.70
2023-04-13T22:23:38.672Z,5.60
2023-04-13T22:28:46.494Z,5.60
2023-04-13T22:33:50.589Z,5.50
2023-04-13T22:38:53.506Z,5.40
2023-04-13T22:43:55.791Z,5.40
2023-04-13T22:49:00.790Z,5.40
2023-04-13T22:54:03.055Z,5.40
2023-04-13T22:59:05.446Z,5.40
2023-04-13T23:04:09.434Z,5.40
2023-04-13T23:09:11.919Z,5.40
2023-04-13T23:14:17.430Z,5.40
2023-04-13T23:19:21.268Z,5.30
2023-04-13T23:24:23.226Z,5.30
2023-04-13T23:29:25.185Z,5.40
2023-04-13T23:34:28.616Z,5.40
2023-04-13T23:39:30.827Z,5.40
2023-04-13T23:44:32.731Z,5.30
2023-04-13T23:49:36.002Z,5.30
2023-04-13T23:54:37.968Z,5.30
2023-04-13T23:59:39.917Z,5.30
